sensor_id;sensor_type;location;lat;lon;timestamp;P1;durP1;ratioP1;P2;durP2;ratioP2
38182;SDS011;23991;52.430;10.586;2022-11-15T00:00:26;17.00;;;10.32;;
38182;SDS011;23991;52.430;10.586;2022-11-15T00:02:52;13.27;;;9.40;;
38182;SDS011;23991;52.430;10.586;2022-11-15T00:05:18;16.58;;;11.07;;
38182;SDS011;23991;52.430;10.586;2022-11-15T00:07:44;16.23;;;10.27;;
38182;SDS011;23991;52.430;10.586;2022-11-15T00:10:09;15.20;;;9.65;;
38182;SDS011;23991;52.430;10.586;2022-11-15T00:12:35;16.60;;;10.68;;
38182;SDS011;23991;52.430;10.586;2022-11-15T00:15:00;17.58;;;10.23;;
38182;SDS011;23991;52.430;10.586;2022-11-15T00:17:26;16.85;;;10.05;;
38182;SDS011;23991;52.430;10.586;2022-11-15T00:19:52;16.48;;;10.73;;
38182;SDS011;23991;52.430;10.586;2022-11-15T00:22:17;16.17;;;11.30;;
38182;SDS011;23991;52.430;10.586;2022-11-15T00:24:43;17.75;;;10.93;;
38182;SDS011;23991;52.430;10.586;2022-11-15T00:27:09;17.05;;;10.10;;
38182;SDS011;23991;52.430;10.586;2022-11-15T00:29:34;13.90;;;10.05;;
38182;SDS011;23991;52.430;10.586;2022-11-15T00:32:02;17.33;;;10.50;;
38182;SDS011;23991;52.430;10.586;2022-11-15T00:34:27;19.10;;;11.27;;
38182;SDS011;23991;52.430;10.586;2022-11-15T00:36:53;16.67;;;9.95;;
38182;SDS011;23991;52.430;10.586;2022-11-15T00:39:22;16.02;;;10.73;;
38182;SDS011;23991;52.430;10.586;2022-11-15T00:41:47;16.30;;;9.60;;
38182;SDS011;23991;52.430;10.586;2022-11-15T00:44:13;15.52;;;9.88;;
38182;SDS011;23991;52.430;10.586;2022-11-15T00:46:38;17.95;;;10.63;;
38182;SDS011;23991;52.430;10.586;2022-11-15T00:49:04;17.45;;;10.38;;
38182;SDS011;23991;52.430;10.586;2022-11-15T00:51:29;15.60;;;10.15;;
38182;SDS011;23991;52.430;10.586;2022-11-15T00:53:55;16.30;;;10.35;;
38182;SDS011;23991;52.430;10.586;2022-11-15T00:56:20;16.70;;;9.90;;
38182;SDS011;23991;52.430;10.586;2022-11-15T00:58:46;27.77;;;12.70;;
38182;SDS011;23991;52.430;10.586;2022-11-15T01:01:13;31.92;;;14.15;;
38182;SDS011;23991;52.430;10.586;2022-11-15T01:03:39;31.58;;;14.98;;
38182;SDS011;23991;52.430;10.586;2022-11-15T01:06:06;32.33;;;14.40;;
38182;SDS011;23991;52.430;10.586;2022-11-15T01:08:33;24.08;;;12.40;;
38182;SDS011;23991;52.430;10.586;2022-11-15T01:11:00;25.63;;;12.48;;
38182;SDS011;23991;52.430;10.586;2022-11-15T01:13:29;21.83;;;11.40;;
38182;SDS011;23991;52.430;10.586;2022-11-15T01:15:58;33.45;;;15.85;;
38182;SDS011;23991;52.430;10.586;2022-11-15T01:18:30;26.20;;;15.27;;
38182;SDS011;23991;52.430;10.586;2022-11-15T01:20:55;23.73;;;13.95;;
38182;SDS011;23991;52.430;10.586;2022-11-15T01:23:21;24.02;;;13.93;;
38182;SDS011;23991;52.430;10.586;2022-11-15T01:25:46;24.08;;;13.93;;
38182;SDS011;23991;52.430;10.586;2022-11-15T01:28:12;18.08;;;11.65;;
38182;SDS011;23991;52.430;10.586;2022-11-15T01:30:38;19.02;;;11.80;;
38182;SDS011;23991;52.430;10.586;2022-11-15T01:33:03;17.55;;;10.63;;
38182;SDS011;23991;52.430;10.586;2022-11-15T01:35:29;16.05;;;9.77;;
38182;SDS011;23991;52.430;10.586;2022-11-15T01:37:54;16.50;;;11.35;;
38182;SDS011;23991;52.430;10.586;2022-11-15T01:40:20;14.43;;;9.60;;
38182;SDS011;23991;52.430;10.586;2022-11-15T01:42:45;16.38;;;10.15;;
38182;SDS011;23991;52.430;10.586;2022-11-15T01:45:13;15.65;;;10.27;;
38182;SDS011;23991;52.430;10.586;2022-11-15T01:47:45;14.52;;;9.45;;
38182;SDS011;23991;52.430;10.586;2022-11-15T01:50:17;13.25;;;8.50;;
38182;SDS011;23991;52.430;10.586;2022-11-15T01:52:47;16.52;;;10.57;;
38182;SDS011;23991;52.430;10.586;2022-11-15T01:55:18;15.23;;;10.02;;
38182;SDS011;23991;52.430;10.586;2022-11-15T01:57:50;17.45;;;10.25;;
38182;SDS011;23991;52.430;10.586;2022-11-15T02:00:18;17.00;;;10.93;;
38182;SDS011;23991;52.430;10.586;2022-11-15T02:02:44;16.80;;;10.07;;
38182;SDS011;23991;52.430;10.586;2022-11-15T02:05:10;15.70;;;9.65;;
38182;SDS011;23991;52.430;10.586;2022-11-15T02:07:36;18.73;;;9.45;;
38182;SDS011;23991;52.430;10.586;2022-11-15T02:10:13;15.05;;;9.52;;
38182;SDS011;23991;52.430;10.586;2022-11-15T02:12:43;13.93;;;9.55;;
38182;SDS011;23991;52.430;10.586;2022-11-15T02:15:09;14.02;;;9.10;;
38182;SDS011;23991;52.430;10.586;2022-11-15T02:23:04;14.95;;;9.80;;
38182;SDS011;23991;52.430;10.586;2022-11-15T02:31:28;15.27;;;9.13;;
38182;SDS011;23991;52.430;10.586;2022-11-15T02:36:44;13.77;;;9.20;;
38182;SDS011;23991;52.430;10.586;2022-11-15T02:39:40;14.27;;;9.20;;
38182;SDS011;23991;52.430;10.586;2022-11-15T02:42:07;15.60;;;8.73;;
38182;SDS011;23991;52.430;10.586;2022-11-15T02:44:58;14.98;;;9.48;;
38182;SDS011;23991;52.430;10.586;2022-11-15T02:47:28;14.73;;;9.25;;
38182;SDS011;23991;52.430;10.586;2022-11-15T02:50:07;15.65;;;10.07;;
38182;SDS011;23991;52.430;10.586;2022-11-15T02:52:35;18.42;;;10.18;;
38182;SDS011;23991;52.430;10.586;2022-11-15T02:55:03;14.05;;;8.68;;
38182;SDS011;23991;52.430;10.586;2022-11-15T03:00:17;13.88;;;8.63;;
38182;SDS011;23991;52.430;10.586;2022-11-15T03:05:31;13.73;;;8.98;;
38182;SDS011;23991;52.430;10.586;2022-11-15T03:10:52;14.50;;;8.88;;
38182;SDS011;23991;52.430;10.586;2022-11-15T03:13:42;15.70;;;8.55;;
38182;SDS011;23991;52.430;10.586;2022-11-15T03:19:20;13.48;;;9.00;;
38182;SDS011;23991;52.430;10.586;2022-11-15T03:22:06;15.48;;;9.98;;
38182;SDS011;23991;52.430;10.586;2022-11-15T03:24:34;13.80;;;9.00;;
38182;SDS011;23991;52.430;10.586;2022-11-15T03:27:02;15.75;;;8.93;;
38182;SDS011;23991;52.430;10.586;2022-11-15T03:29:39;16.07;;;8.90;;
38182;SDS011;23991;52.430;10.586;2022-11-15T03:32:11;12.93;;;8.45;;
38182;SDS011;23991;52.430;10.586;2022-11-15T03:37:09;13.65;;;8.35;;
38182;SDS011;23991;52.430;10.586;2022-11-15T03:39:36;14.43;;;8.90;;
38182;SDS011;23991;52.430;10.586;2022-11-15T03:44:51;14.20;;;9.45;;
38182;SDS011;23991;52.430;10.586;2022-11-15T03:50:10;16.05;;;10.05;;
38182;SDS011;23991;52.430;10.586;2022-11-15T03:52:39;15.98;;;9.65;;
38182;SDS011;23991;52.430;10.586;2022-11-15T03:55:06;14.13;;;9.48;;
38182;SDS011;23991;52.430;10.586;2022-11-15T03:57:35;17.38;;;10.55;;
38182;SDS011;23991;52.430;10.586;2022-11-15T04:00:02;16.48;;;10.55;;
38182;SDS011;23991;52.430;10.586;2022-11-15T04:02:28;15.60;;;10.25;;
38182;SDS011;23991;52.430;10.586;2022-11-15T04:04:54;15.20;;;9.38;;
38182;SDS011;23991;52.430;10.586;2022-11-15T04:07:19;14.48;;;9.38;;
38182;SDS011;23991;52.430;10.586;2022-11-15T04:09:45;16.15;;;9.65;;
38182;SDS011;23991;52.430;10.586;2022-11-15T04:12:30;17.70;;;9.80;;
38182;SDS011;23991;52.430;10.586;2022-11-15T04:15:15;16.77;;;9.45;;
38182;SDS011;23991;52.430;10.586;2022-11-15T04:17:46;16.85;;;9.75;;
38182;SDS011;23991;52.430;10.586;2022-11-15T04:23:06;14.85;;;9.18;;
38182;SDS011;23991;52.430;10.586;2022-11-15T04:25:53;16.15;;;9.68;;
38182;SDS011;23991;52.430;10.586;2022-11-15T04:28:21;15.43;;;9.02;;
38182;SDS011;23991;52.430;10.586;2022-11-15T04:30:47;13.77;;;8.57;;
38182;SDS011;23991;52.430;10.586;2022-11-15T04:33:13;15.02;;;9.10;;
38182;SDS011;23991;52.430;10.586;2022-11-15T04:35:39;16.48;;;9.65;;
38182;SDS011;23991;52.430;10.586;2022-11-15T04:38:06;14.48;;;9.65;;
38182;SDS011;23991;52.430;10.586;2022-11-15T04:40:32;14.55;;;9.10;;
38182;SDS011;23991;52.430;10.586;2022-11-15T04:42:58;16.92;;;10.45;;
38182;SDS011;23991;52.430;10.586;2022-11-15T04:45:24;14.23;;;9.43;;
38182;SDS011;23991;52.430;10.586;2022-11-15T04:47:49;15.93;;;9.55;;
38182;SDS011;23991;52.430;10.586;2022-11-15T04:50:15;15.60;;;9.88;;
38182;SDS011;23991;52.430;10.586;2022-11-15T04:52:49;13.02;;;8.43;;
38182;SDS011;23991;52.430;10.586;2022-11-15T04:55:16;13.40;;;8.88;;
38182;SDS011;23991;52.430;10.586;2022-11-15T04:57:42;14.68;;;9.38;;
38182;SDS011;23991;52.430;10.586;2022-11-15T05:00:09;14.10;;;8.93;;
38182;SDS011;23991;52.430;10.586;2022-11-15T05:02:36;16.83;;;9.85;;
38182;SDS011;23991;52.430;10.586;2022-11-15T05:05:20;17.15;;;9.68;;
38182;SDS011;23991;52.430;10.586;2022-11-15T05:07:46;17.15;;;9.73;;
38182;SDS011;23991;52.430;10.586;2022-11-15T05:10:11;14.77;;;9.20;;
38182;SDS011;23991;52.430;10.586;2022-11-15T05:12:37;16.83;;;9.63;;
38182;SDS011;23991;52.430;10.586;2022-11-15T05:15:03;14.43;;;9.20;;
38182;SDS011;23991;52.430;10.586;2022-11-15T05:17:29;14.73;;;9.38;;
38182;SDS011;23991;52.430;10.586;2022-11-15T05:19:54;14.98;;;9.43;;
38182;SDS011;23991;52.430;10.586;2022-11-15T05:22:20;17.58;;;10.13;;
38182;SDS011;23991;52.430;10.586;2022-11-15T05:24:46;17.58;;;9.63;;
38182;SDS011;23991;52.430;10.586;2022-11-15T05:27:12;18.70;;;10.63;;
38182;SDS011;23991;52.430;10.586;2022-11-15T05:29:37;15.52;;;9.35;;
38182;SDS011;23991;52.430;10.586;2022-11-15T05:32:03;14.63;;;9.90;;
38182;SDS011;23991;52.430;10.586;2022-11-15T05:34:30;16.52;;;9.90;;
38182;SDS011;23991;52.430;10.586;2022-11-15T05:36:57;17.23;;;9.73;;
38182;SDS011;23991;52.430;10.586;2022-11-15T05:39:23;18.90;;;9.98;;
38182;SDS011;23991;52.430;10.586;2022-11-15T05:41:54;16.35;;;10.85;;
38182;SDS011;23991;52.430;10.586;2022-11-15T05:44:25;15.15;;;9.73;;
38182;SDS011;23991;52.430;10.586;2022-11-15T05:46:51;14.48;;;10.07;;
38182;SDS011;23991;52.430;10.586;2022-11-15T05:49:20;18.88;;;10.60;;
38182;SDS011;23991;52.430;10.586;2022-11-15T05:51:49;16.20;;;10.02;;
38182;SDS011;23991;52.430;10.586;2022-11-15T05:54:17;16.13;;;9.90;;
38182;SDS011;23991;52.430;10.586;2022-11-15T05:56:45;18.35;;;11.27;;
38182;SDS011;23991;52.430;10.586;2022-11-15T05:59:11;17.90;;;10.52;;
38182;SDS011;23991;52.430;10.586;2022-11-15T06:01:37;19.13;;;11.02;;
38182;SDS011;23991;52.430;10.586;2022-11-15T06:04:04;18.05;;;11.40;;
38182;SDS011;23991;52.430;10.586;2022-11-15T06:06:30;17.88;;;10.80;;
38182;SDS011;23991;52.430;10.586;2022-11-15T06:08:55;16.95;;;10.02;;
38182;SDS011;23991;52.430;10.586;2022-11-15T06:11:21;14.98;;;9.93;;
38182;SDS011;23991;52.430;10.586;2022-11-15T06:13:47;17.00;;;10.55;;
38182;SDS011;23991;52.430;10.586;2022-11-15T06:16:12;15.27;;;9.93;;
38182;SDS011;23991;52.430;10.586;2022-11-15T06:18:38;16.50;;;10.63;;
38182;SDS011;23991;52.430;10.586;2022-11-15T06:21:04;18.38;;;9.98;;
38182;SDS011;23991;52.430;10.586;2022-11-15T06:23:34;15.43;;;9.70;;
38182;SDS011;23991;52.430;10.586;2022-11-15T06:28:28;17.02;;;9.57;;
38182;SDS011;23991;52.430;10.586;2022-11-15T06:30:54;16.38;;;9.30;;
38182;SDS011;23991;52.430;10.586;2022-11-15T06:33:20;14.90;;;8.98;;
38182;SDS011;23991;52.430;10.586;2022-11-15T06:35:46;15.80;;;9.90;;
38182;SDS011;23991;52.430;10.586;2022-11-15T06:38:11;19.67;;;10.73;;
38182;SDS011;23991;52.430;10.586;2022-11-15T06:40:37;42.60;;;18.80;;
38182;SDS011;23991;52.430;10.586;2022-11-15T06:43:04;29.80;;;15.07;;
38182;SDS011;23991;52.430;10.586;2022-11-15T06:45:30;22.90;;;12.48;;
38182;SDS011;23991;52.430;10.586;2022-11-15T06:47:56;17.50;;;10.07;;
38182;SDS011;23991;52.430;10.586;2022-11-15T06:50:22;13.75;;;9.57;;
38182;SDS011;23991;52.430;10.586;2022-11-15T06:52:48;14.60;;;9.00;;
38182;SDS011;23991;52.430;10.586;2022-11-15T06:55:14;14.07;;;9.30;;
38182;SDS011;23991;52.430;10.586;2022-11-15T06:57:49;17.27;;;9.57;;
38182;SDS011;23991;52.430;10.586;2022-11-15T07:00:17;15.13;;;9.65;;
38182;SDS011;23991;52.430;10.586;2022-11-15T07:02:44;14.93;;;9.85;;
38182;SDS011;23991;52.430;10.586;2022-11-15T07:05:10;50.63;;;28.13;;
38182;SDS011;23991;52.430;10.586;2022-11-15T07:07:36;27.58;;;17.30;;
38182;SDS011;23991;52.430;10.586;2022-11-15T07:10:02;22.90;;;13.60;;
38182;SDS011;23991;52.430;10.586;2022-11-15T07:12:28;19.33;;;12.02;;
38182;SDS011;23991;52.430;10.586;2022-11-15T07:14:54;17.70;;;11.85;;
38182;SDS011;23991;52.430;10.586;2022-11-15T07:17:19;17.92;;;10.75;;
38182;SDS011;23991;52.430;10.586;2022-11-15T07:19:45;16.42;;;10.95;;
38182;SDS011;23991;52.430;10.586;2022-11-15T07:22:10;21.15;;;12.15;;
38182;SDS011;23991;52.430;10.586;2022-11-15T07:24:36;18.40;;;11.80;;
38182;SDS011;23991;52.430;10.586;2022-11-15T07:27:01;16.48;;;11.18;;
38182;SDS011;23991;52.430;10.586;2022-11-15T07:29:27;19.13;;;11.02;;
38182;SDS011;23991;52.430;10.586;2022-11-15T07:31:53;18.80;;;11.75;;
38182;SDS011;23991;52.430;10.586;2022-11-15T07:34:18;16.05;;;9.90;;
38182;SDS011;23991;52.430;10.586;2022-11-15T07:36:44;12.85;;;8.48;;
38182;SDS011;23991;52.430;10.586;2022-11-15T07:39:10;15.35;;;9.18;;
38182;SDS011;23991;52.430;10.586;2022-11-15T07:41:42;13.75;;;8.95;;
38182;SDS011;23991;52.430;10.586;2022-11-15T07:44:08;16.08;;;7.75;;
38182;SDS011;23991;52.430;10.586;2022-11-15T07:46:34;14.30;;;8.05;;
38182;SDS011;23991;52.430;10.586;2022-11-15T07:48:59;11.13;;;7.07;;
38182;SDS011;23991;52.430;10.586;2022-11-15T07:51:25;10.57;;;6.25;;
38182;SDS011;23991;52.430;10.586;2022-11-15T07:53:51;14.90;;;6.53;;
38182;SDS011;23991;52.430;10.586;2022-11-15T07:56:16;11.43;;;6.80;;
38182;SDS011;23991;52.430;10.586;2022-11-15T07:58:42;11.63;;;7.13;;
38182;SDS011;23991;52.430;10.586;2022-11-15T08:01:08;10.00;;;6.70;;
38182;SDS011;23991;52.430;10.586;2022-11-15T08:03:34;9.63;;;5.53;;
38182;SDS011;23991;52.430;10.586;2022-11-15T08:06:01;8.60;;;5.43;;
38182;SDS011;23991;52.430;10.586;2022-11-15T08:08:27;9.45;;;5.53;;
38182;SDS011;23991;52.430;10.586;2022-11-15T08:10:53;10.43;;;5.57;;
38182;SDS011;23991;52.430;10.586;2022-11-15T08:13:18;10.25;;;5.55;;
38182;SDS011;23991;52.430;10.586;2022-11-15T08:15:44;7.43;;;4.53;;
38182;SDS011;23991;52.430;10.586;2022-11-15T08:18:11;6.90;;;4.68;;
38182;SDS011;23991;52.430;10.586;2022-11-15T08:20:39;7.80;;;4.85;;
38182;SDS011;23991;52.430;10.586;2022-11-15T08:23:05;7.28;;;4.25;;
38182;SDS011;23991;52.430;10.586;2022-11-15T08:25:32;7.97;;;5.22;;
38182;SDS011;23991;52.430;10.586;2022-11-15T08:28:00;7.03;;;4.40;;
38182;SDS011;23991;52.430;10.586;2022-11-15T08:30:27;6.88;;;4.47;;
38182;SDS011;23991;52.430;10.586;2022-11-15T08:32:53;6.65;;;4.38;;
38182;SDS011;23991;52.430;10.586;2022-11-15T08:35:20;11.73;;;4.28;;
38182;SDS011;23991;52.430;10.586;2022-11-15T08:37:46;7.75;;;4.15;;
38182;SDS011;23991;52.430;10.586;2022-11-15T08:40:12;6.25;;;4.10;;
38182;SDS011;23991;52.430;10.586;2022-11-15T08:42:38;11.77;;;4.90;;
38182;SDS011;23991;52.430;10.586;2022-11-15T08:45:05;10.90;;;5.05;;
38182;SDS011;23991;52.430;10.586;2022-11-15T08:47:31;10.20;;;5.70;;
38182;SDS011;23991;52.430;10.586;2022-11-15T08:49:57;7.22;;;4.47;;
38182;SDS011;23991;52.430;10.586;2022-11-15T08:52:23;6.07;;;3.90;;
38182;SDS011;23991;52.430;10.586;2022-11-15T08:54:48;10.45;;;4.88;;
38182;SDS011;23991;52.430;10.586;2022-11-15T08:57:14;8.45;;;4.57;;
38182;SDS011;23991;52.430;10.586;2022-11-15T08:59:40;7.03;;;4.03;;
38182;SDS011;23991;52.430;10.586;2022-11-15T09:02:05;6.25;;;4.32;;
38182;SDS011;23991;52.430;10.586;2022-11-15T09:04:31;8.90;;;4.63;;
38182;SDS011;23991;52.430;10.586;2022-11-15T09:06:57;9.10;;;4.60;;
38182;SDS011;23991;52.430;10.586;2022-11-15T09:09:23;6.80;;;4.70;;
38182;SDS011;23991;52.430;10.586;2022-11-15T09:11:48;12.23;;;7.63;;
38182;SDS011;23991;52.430;10.586;2022-11-15T09:14:15;11.95;;;5.80;;
38182;SDS011;23991;52.430;10.586;2022-11-15T09:16:41;7.35;;;5.18;;
38182;SDS011;23991;52.430;10.586;2022-11-15T09:19:07;7.53;;;4.95;;
38182;SDS011;23991;52.430;10.586;2022-11-15T09:21:32;8.25;;;5.45;;
38182;SDS011;23991;52.430;10.586;2022-11-15T09:23:58;7.70;;;5.55;;
38182;SDS011;23991;52.430;10.586;2022-11-15T09:26:24;9.88;;;4.88;;
38182;SDS011;23991;52.430;10.586;2022-11-15T09:28:50;7.30;;;4.93;;
38182;SDS011;23991;52.430;10.586;2022-11-15T09:31:15;10.05;;;5.55;;
38182;SDS011;23991;52.430;10.586;2022-11-15T09:33:44;8.43;;;5.70;;
38182;SDS011;23991;52.430;10.586;2022-11-15T09:36:11;9.50;;;5.45;;
38182;SDS011;23991;52.430;10.586;2022-11-15T09:38:37;9.10;;;6.28;;
38182;SDS011;23991;52.430;10.586;2022-11-15T09:51:35;7.85;;;5.30;;
38182;SDS011;23991;52.430;10.586;2022-11-15T09:56:35;8.15;;;4.72;;
38182;SDS011;23991;52.430;10.586;2022-11-15T10:01:58;7.85;;;4.97;;
38182;SDS011;23991;52.430;10.586;2022-11-15T10:04:30;10.48;;;5.15;;
38182;SDS011;23991;52.430;10.586;2022-11-15T10:07:04;6.72;;;4.93;;
38182;SDS011;23991;52.430;10.586;2022-11-15T10:12:22;9.63;;;5.38;;
38182;SDS011;23991;52.430;10.586;2022-11-15T10:14:50;8.23;;;4.40;;
38182;SDS011;23991;52.430;10.586;2022-11-15T10:20:30;6.88;;;4.68;;
38182;SDS011;23991;52.430;10.586;2022-11-15T10:23:10;6.13;;;4.47;;
38182;SDS011;23991;52.430;10.586;2022-11-15T10:25:38;8.57;;;4.95;;
38182;SDS011;23991;52.430;10.586;2022-11-15T10:30:43;6.72;;;4.60;;
38182;SDS011;23991;52.430;10.586;2022-11-15T10:33:43;6.63;;;4.47;;
38182;SDS011;23991;52.430;10.586;2022-11-15T10:38:54;8.57;;;4.20;;
38182;SDS011;23991;52.430;10.586;2022-11-15T10:44:11;5.90;;;3.92;;
38182;SDS011;23991;52.430;10.586;2022-11-15T10:46:46;7.35;;;4.50;;
38182;SDS011;23991;52.430;10.586;2022-11-15T10:49:22;6.70;;;3.97;;
38182;SDS011;23991;52.430;10.586;2022-11-15T10:51:57;6.70;;;3.67;;
38182;SDS011;23991;52.430;10.586;2022-11-15T10:54:23;4.53;;;3.53;;
38182;SDS011;23991;52.430;10.586;2022-11-15T10:56:58;7.25;;;4.18;;
38182;SDS011;23991;52.430;10.586;2022-11-15T10:59:29;5.05;;;3.53;;
38182;SDS011;23991;52.430;10.586;2022-11-15T11:01:59;4.40;;;3.50;;
38182;SDS011;23991;52.430;10.586;2022-11-15T11:04:25;7.20;;;4.35;;
38182;SDS011;23991;52.430;10.586;2022-11-15T11:09:23;5.63;;;3.10;;
38182;SDS011;23991;52.430;10.586;2022-11-15T11:11:52;7.95;;;4.43;;
38182;SDS011;23991;52.430;10.586;2022-11-15T11:14:22;6.07;;;3.92;;
38182;SDS011;23991;52.430;10.586;2022-11-15T11:17:06;6.78;;;4.00;;
38182;SDS011;23991;52.430;10.586;2022-11-15T11:19:40;7.63;;;3.47;;
38182;SDS011;23991;52.430;10.586;2022-11-15T11:22:26;7.28;;;3.70;;
38182;SDS011;23991;52.430;10.586;2022-11-15T11:30:08;6.03;;;3.75;;
38182;SDS011;23991;52.430;10.586;2022-11-15T11:36:48;7.05;;;3.20;;
38182;SDS011;23991;52.430;10.586;2022-11-15T11:38:58;5.70;;;3.38;;
38182;SDS011;23991;52.430;10.586;2022-11-15T11:47:31;8.68;;;3.70;;
38182;SDS011;23991;52.430;10.586;2022-11-15T11:53:03;5.18;;;3.65;;
38182;SDS011;23991;52.430;10.586;2022-11-15T11:58:19;6.18;;;3.50;;
38182;SDS011;23991;52.430;10.586;2022-11-15T12:06:52;5.90;;;3.55;;
38182;SDS011;23991;52.430;10.586;2022-11-15T12:15:24;4.55;;;3.20;;
38182;SDS011;23991;52.430;10.586;2022-11-15T12:17:55;7.53;;;3.60;;
38182;SDS011;23991;52.430;10.586;2022-11-15T12:20:22;4.10;;;3.20;;
38182;SDS011;23991;52.430;10.586;2022-11-15T12:23:13;6.00;;;3.55;;
38182;SDS011;23991;52.430;10.586;2022-11-15T12:26:01;8.32;;;3.33;;
38182;SDS011;23991;52.430;10.586;2022-11-15T12:31:39;6.00;;;3.20;;
38182;SDS011;23991;52.430;10.586;2022-11-15T12:36:47;4.88;;;3.25;;
38182;SDS011;23991;52.430;10.586;2022-11-15T12:39:15;4.93;;;3.33;;
38182;SDS011;23991;52.430;10.586;2022-11-15T12:41:42;7.30;;;3.70;;
38182;SDS011;23991;52.430;10.586;2022-11-15T12:44:13;6.60;;;3.38;;
38182;SDS011;23991;52.430;10.586;2022-11-15T13:17:40;5.55;;;3.95;;
38182;SDS011;23991;52.430;10.586;2022-11-15T13:30:40;5.35;;;3.40;;
38182;SDS011;23991;52.430;10.586;2022-11-15T13:33:15;7.78;;;3.80;;
38182;SDS011;23991;52.430;10.586;2022-11-15T13:35:54;7.60;;;3.65;;
38182;SDS011;23991;52.430;10.586;2022-11-15T13:38:27;5.50;;;3.30;;
38182;SDS011;23991;52.430;10.586;2022-11-15T13:40:55;5.93;;;3.30;;
38182;SDS011;23991;52.430;10.586;2022-11-15T13:48:50;5.32;;;3.58;;
38182;SDS011;23991;52.430;10.586;2022-11-15T13:51:24;6.57;;;3.38;;
38182;SDS011;23991;52.430;10.586;2022-11-15T13:54:14;5.82;;;3.42;;
38182;SDS011;23991;52.430;10.586;2022-11-15T13:57:08;5.60;;;3.13;;
38182;SDS011;23991;52.430;10.586;2022-11-15T13:59:48;7.22;;;3.30;;
38182;SDS011;23991;52.430;10.586;2022-11-15T14:02:21;4.70;;;3.20;;
38182;SDS011;23991;52.430;10.586;2022-11-15T14:05:02;6.75;;;3.47;;
38182;SDS011;23991;52.430;10.586;2022-11-15T14:07:40;7.78;;;3.25;;
38182;SDS011;23991;52.430;10.586;2022-11-15T14:10:30;8.80;;;3.40;;
38182;SDS011;23991;52.430;10.586;2022-11-15T14:13:01;7.93;;;3.75;;
38182;SDS011;23991;52.430;10.586;2022-11-15T14:15:29;6.18;;;3.97;;
38182;SDS011;23991;52.430;10.586;2022-11-15T14:17:57;12.60;;;3.70;;
38182;SDS011;23991;52.430;10.586;2022-11-15T14:23:01;6.28;;;3.50;;
38182;SDS011;23991;52.430;10.586;2022-11-15T14:25:52;6.90;;;4.15;;
38182;SDS011;23991;52.430;10.586;2022-11-15T14:30:47;6.35;;;4.22;;
38182;SDS011;23991;52.430;10.586;2022-11-15T14:33:19;7.90;;;4.40;;
38182;SDS011;23991;52.430;10.586;2022-11-15T14:35:54;6.65;;;3.67;;
38182;SDS011;23991;52.430;10.586;2022-11-15T14:38:22;6.30;;;3.63;;
38182;SDS011;23991;52.430;10.586;2022-11-15T14:40:48;6.20;;;4.05;;
38182;SDS011;23991;52.430;10.586;2022-11-15T14:43:14;8.02;;;3.38;;
38182;SDS011;23991;52.430;10.586;2022-11-15T14:45:41;6.82;;;4.05;;
38182;SDS011;23991;52.430;10.586;2022-11-15T14:48:07;6.53;;;3.72;;
38182;SDS011;23991;52.430;10.586;2022-11-15T14:50:33;8.25;;;4.18;;
38182;SDS011;23991;52.430;10.586;2022-11-15T14:52:59;9.15;;;4.53;;
38182;SDS011;23991;52.430;10.586;2022-11-15T14:55:26;6.75;;;4.57;;
38182;SDS011;23991;52.430;10.586;2022-11-15T14:57:56;9.05;;;4.10;;
38182;SDS011;23991;52.430;10.586;2022-11-15T15:00:22;12.10;;;4.20;;
38182;SDS011;23991;52.430;10.586;2022-11-15T15:02:50;7.57;;;4.20;;
38182;SDS011;23991;52.430;10.586;2022-11-15T15:05:20;11.35;;;4.05;;
38182;SDS011;23991;52.430;10.586;2022-11-15T15:07:46;7.68;;;4.03;;
38182;SDS011;23991;52.430;10.586;2022-11-15T15:10:12;6.57;;;3.60;;
38182;SDS011;23991;52.430;10.586;2022-11-15T15:12:39;6.25;;;3.65;;
38182;SDS011;23991;52.430;10.586;2022-11-15T15:15:15;7.47;;;3.97;;
38182;SDS011;23991;52.430;10.586;2022-11-15T15:17:45;10.13;;;4.30;;
38182;SDS011;23991;52.430;10.586;2022-11-15T15:20:10;6.78;;;4.00;;
38182;SDS011;23991;52.430;10.586;2022-11-15T15:22:36;9.50;;;4.40;;
38182;SDS011;23991;52.430;10.586;2022-11-15T15:25:08;8.65;;;4.60;;
38182;SDS011;23991;52.430;10.586;2022-11-15T15:27:44;9.50;;;4.43;;
38182;SDS011;23991;52.430;10.586;2022-11-15T15:30:10;6.50;;;4.18;;
38182;SDS011;23991;52.430;10.586;2022-11-15T15:32:36;7.50;;;4.47;;
38182;SDS011;23991;52.430;10.586;2022-11-15T15:35:01;8.85;;;4.78;;
38182;SDS011;23991;52.430;10.586;2022-11-15T15:37:27;9.40;;;4.72;;
38182;SDS011;23991;52.430;10.586;2022-11-15T15:39:55;6.20;;;4.28;;
38182;SDS011;23991;52.430;10.586;2022-11-15T15:42:22;7.13;;;4.53;;
38182;SDS011;23991;52.430;10.586;2022-11-15T15:44:49;9.85;;;4.55;;
38182;SDS011;23991;52.430;10.586;2022-11-15T15:47:16;8.60;;;4.72;;
38182;SDS011;23991;52.430;10.586;2022-11-15T15:49:45;7.38;;;4.45;;
38182;SDS011;23991;52.430;10.586;2022-11-15T15:52:12;9.70;;;5.40;;
38182;SDS011;23991;52.430;10.586;2022-11-15T15:54:38;8.50;;;4.65;;
38182;SDS011;23991;52.430;10.586;2022-11-15T15:57:04;8.65;;;5.82;;
38182;SDS011;23991;52.430;10.586;2022-11-15T15:59:31;9.65;;;6.72;;
38182;SDS011;23991;52.430;10.586;2022-11-15T16:01:56;7.95;;;5.38;;
38182;SDS011;23991;52.430;10.586;2022-11-15T16:04:22;7.55;;;5.25;;
38182;SDS011;23991;52.430;10.586;2022-11-15T16:06:48;9.02;;;5.45;;
38182;SDS011;23991;52.430;10.586;2022-11-15T16:09:18;10.40;;;5.32;;
38182;SDS011;23991;52.430;10.586;2022-11-15T16:12:04;9.10;;;5.82;;
38182;SDS011;23991;52.430;10.586;2022-11-15T16:14:31;12.15;;;6.28;;
38182;SDS011;23991;52.430;10.586;2022-11-15T16:16:58;10.02;;;6.57;;
38182;SDS011;23991;52.430;10.586;2022-11-15T16:19:23;13.27;;;6.80;;
38182;SDS011;23991;52.430;10.586;2022-11-15T16:21:49;10.35;;;6.70;;
38182;SDS011;23991;52.430;10.586;2022-11-15T16:26:45;9.70;;;6.28;;
38182;SDS011;23991;52.430;10.586;2022-11-15T16:29:12;9.45;;;6.70;;
38182;SDS011;23991;52.430;10.586;2022-11-15T16:31:38;10.45;;;6.82;;
38182;SDS011;23991;52.430;10.586;2022-11-15T16:34:05;11.57;;;7.20;;
38182;SDS011;23991;52.430;10.586;2022-11-15T16:36:33;14.88;;;7.40;;
38182;SDS011;23991;52.430;10.586;2022-11-15T16:38:59;11.30;;;6.70;;
38182;SDS011;23991;52.430;10.586;2022-11-15T16:41:29;12.68;;;7.38;;
38182;SDS011;23991;52.430;10.586;2022-11-15T16:43:55;11.27;;;6.80;;
38182;SDS011;23991;52.430;10.586;2022-11-15T16:46:25;14.63;;;7.57;;
38182;SDS011;23991;52.430;10.586;2022-11-15T16:48:55;12.50;;;6.90;;
38182;SDS011;23991;52.430;10.586;2022-11-15T16:51:22;12.27;;;8.35;;
38182;SDS011;23991;52.430;10.586;2022-11-15T16:53:48;16.10;;;7.35;;
38182;SDS011;23991;52.430;10.586;2022-11-15T16:56:19;14.25;;;7.43;;
38182;SDS011;23991;52.430;10.586;2022-11-15T16:58:51;11.80;;;7.15;;
38182;SDS011;23991;52.430;10.586;2022-11-15T17:01:26;11.85;;;7.15;;
38182;SDS011;23991;52.430;10.586;2022-11-15T17:03:53;10.52;;;7.10;;
38182;SDS011;23991;52.430;10.586;2022-11-15T17:06:20;12.75;;;7.43;;
38182;SDS011;23991;52.430;10.586;2022-11-15T17:08:48;12.95;;;7.15;;
38182;SDS011;23991;52.430;10.586;2022-11-15T17:11:17;11.32;;;6.95;;
38182;SDS011;23991;52.430;10.586;2022-11-15T17:16:17;10.77;;;6.68;;
38182;SDS011;23991;52.430;10.586;2022-11-15T17:18:44;11.25;;;6.90;;